Airbus A380 de Air France no pudo aterrizar en el AICM y fue desviado al alterno

El avión comercial mas grande del mundo el Airbus A380 llegó por primera vez al Aeropuerto Intercontinental de Querétaro, México (MMQT), este lunes 18 de abril, luego de las malas condiciones climatologías imperantes en el Aeropuerto Internacional de la Ciudad de México.

El vuelo Af178 que realizaba la ruta París – Ciudad de México, tuvo que ser desviado al aeropuerto alterno por dichas condiciones; siendo la primera vez para el Intercontinental de Querétaro en recibir a la aeronave.

La coordinación se llevó acabo a través de Centro México y Aproximación Querétaro.

El aeropuerto Intercontinental de Querétaro fue autorizado en noviembre del 2015 para operar como el primer aeropuerto alterno en México para recibir al Airbus A380; el estudio fue realizado por la Administración del AIQ, autoridades y aerolínea.

Metar AICM:

MMMX 182131Z 25033KT 5SM TSRA BKN020CB OVC080 21/06 A3026 TEMPO 4SM TSRA RMK 8/96/ HZY -RAE26 OCNL LTGCCCG

Deja tu comentario.

También te podría gustar...

PHP Code Snippets Powered By : XYZScripts.com